createdAt,value
2019-04-12T00:02:28.316Z,2.60
2019-04-12T00:05:01.707Z,2.70
2019-04-12T00:07:32.592Z,2.60
2019-04-12T00:10:00.189Z,2.60
2019-04-12T00:12:29.586Z,2.50
2019-04-12T00:14:58.980Z,2.50
2019-04-12T00:17:28.377Z,2.50
2019-04-12T00:19:57.848Z,2.50
2019-04-12T00:22:27.266Z,2.50
2019-04-12T00:24:56.658Z,2.60
2019-04-12T00:27:26.085Z,2.60
2019-04-12T00:29:55.593Z,2.60
2019-04-12T00:32:25.001Z,2.60
2019-04-12T00:34:54.415Z,2.60
2019-04-12T00:37:24.346Z,2.60
2019-04-12T00:39:54.989Z,2.50
2019-04-12T00:42:24.386Z,2.40
2019-04-12T00:44:53.800Z,2.40
2019-04-12T00:47:23.755Z,2.40
2019-04-12T00:49:53.197Z,2.40
2019-04-12T00:52:22.691Z,2.50
2019-04-12T00:54:52.128Z,2.40
2019-04-12T00:57:21.534Z,2.40
2019-04-12T00:59:50.976Z,2.40
2019-04-12T01:02:46.060Z,2.40
2019-04-12T01:05:23.340Z,2.30
2019-04-12T01:08:06.401Z,2.30
2019-04-12T01:10:40.620Z,2.30
2019-04-12T01:13:10.882Z,2.30
2019-04-12T01:15:41.445Z,2.30
2019-04-12T01:18:10.864Z,2.30
2019-04-12T01:20:41.485Z,2.20
2019-04-12T01:23:11.474Z,2.20
2019-04-12T01:25:44.229Z,2.20
2019-04-12T01:28:12.753Z,2.20
2019-04-12T01:30:42.293Z,2.20
2019-04-12T01:33:11.700Z,2.20
2019-04-12T01:35:41.136Z,2.20
2019-04-12T01:38:10.858Z,2.20
2019-04-12T01:40:40.309Z,2.20
2019-04-12T01:43:09.729Z,2.20
2019-04-12T01:45:39.182Z,2.10
2019-04-12T01:48:08.569Z,2.20
2019-04-12T01:50:37.969Z,2.20
2019-04-12T01:53:07.371Z,2.20
2019-04-12T01:55:36.769Z,2.10
2019-04-12T01:58:06.173Z,2.10
2019-04-12T02:00:35.572Z,2.00
2019-04-12T02:03:05.002Z,2.00
2019-04-12T02:05:34.470Z,2.00
2019-04-12T02:08:03.921Z,2.00
2019-04-12T02:10:33.329Z,2.00
2019-04-12T02:13:03.101Z,2.10
2019-04-12T02:15:32.621Z,2.00
2019-04-12T02:18:02.017Z,2.00
2019-04-12T02:20:31.743Z,2.00
2019-04-12T02:23:01.423Z,2.00
2019-04-12T02:25:31.125Z,2.00
2019-04-12T02:28:00.923Z,2.00
2019-04-12T02:30:31.526Z,2.00
2019-04-12T02:33:02.268Z,2.10
2019-04-12T02:35:42.510Z,2.00
2019-04-12T02:38:11.970Z,2.00
2019-04-12T02:40:43.072Z,1.90
2019-04-12T02:43:14.168Z,1.90
2019-04-12T02:45:47.855Z,1.90
2019-04-12T02:48:38.370Z,1.80
2019-04-12T02:51:18.763Z,1.80
2019-04-12T02:54:03.829Z,1.80
2019-04-12T02:57:05.200Z,1.70
2019-04-12T02:59:36.322Z,1.80
2019-04-12T03:02:09.750Z,1.80
2019-04-12T03:04:39.151Z,1.70
2019-04-12T03:07:08.565Z,1.70
2019-04-12T03:09:39.491Z,1.70
2019-04-12T03:12:10.757Z,1.70
2019-04-12T03:14:41.856Z,1.70
2019-04-12T03:17:12.794Z,1.80
2019-04-12T03:19:42.863Z,1.80
2019-04-12T03:22:12.278Z,1.80
2019-04-12T03:24:42.028Z,1.80
2019-04-12T03:27:11.650Z,1.80
2019-04-12T03:29:41.581Z,1.80
2019-04-12T03:32:11.527Z,1.80
2019-04-12T03:34:40.940Z,1.80
2019-04-12T03:37:10.539Z,1.80
2019-04-12T03:39:40.048Z,1.90
2019-04-12T03:42:10.483Z,1.90
2019-04-12T03:44:39.884Z,1.80
2019-04-12T03:47:10.433Z,1.80
2019-04-12T03:49:39.849Z,1.80
2019-04-12T03:52:10.237Z,1.80
2019-04-12T03:54:39.637Z,1.80
2019-04-12T03:57:09.052Z,1.80
2019-04-12T03:59:38.682Z,1.80
2019-04-12T04:02:16.364Z,1.70
2019-04-12T04:04:46.087Z,1.70
2019-04-12T04:07:15.729Z,1.80
2019-04-12T04:09:45.149Z,1.80
2019-04-12T04:12:14.589Z,1.80
2019-04-12T04:14:45.071Z,1.80
2019-04-12T04:17:28.747Z,1.80
2019-04-12T04:20:14.553Z,1.80
2019-04-12T04:22:44.940Z,1.80
2019-04-12T04:25:29.672Z,1.90
2019-04-12T04:28:17.900Z,1.80
2019-04-12T04:30:52.507Z,1.80
2019-04-12T04:33:22.331Z,1.80
2019-04-12T04:35:52.031Z,1.80
2019-04-12T04:38:21.971Z,1.80
2019-04-12T04:41:03.124Z,1.80
2019-04-12T04:43:32.736Z,1.80
2019-04-12T04:46:02.723Z,1.80
2019-04-12T04:48:32.316Z,1.80
2019-04-12T04:51:01.728Z,1.70
2019-04-12T04:53:31.130Z,1.80
2019-04-12T04:56:00.542Z,1.80
2019-04-12T04:58:29.947Z,1.80
2019-04-12T05:00:59.858Z,1.70
2019-04-12T05:03:29.882Z,1.70
2019-04-12T05:05:59.589Z,1.70
2019-04-12T05:08:29.223Z,1.70
2019-04-12T05:10:58.669Z,1.70
2019-04-12T05:13:28.206Z,1.60
2019-04-12T05:15:57.803Z,1.60
2019-04-12T05:18:27.434Z,1.50
2019-04-12T05:20:57.075Z,1.50
2019-04-12T05:23:26.505Z,1.50
2019-04-12T05:25:56.519Z,1.60
2019-04-12T05:28:26.231Z,1.60
2019-04-12T05:30:56.029Z,1.50
2019-04-12T05:33:25.805Z,1.50
2019-04-12T05:35:55.331Z,1.60
2019-04-12T05:38:24.764Z,1.70
2019-04-12T05:40:54.945Z,1.60
2019-04-12T05:43:24.897Z,1.70
2019-04-12T05:46:07.465Z,1.80
2019-04-12T05:48:44.281Z,1.90
2019-04-12T05:51:14.053Z,1.80
2019-04-12T05:53:43.866Z,1.90
2019-04-12T05:56:14.597Z,1.80
2019-04-12T05:59:11.794Z,1.80
2019-04-12T06:01:54.070Z,1.80
2019-04-12T06:04:26.243Z,1.90
2019-04-12T06:06:54.904Z,2.00
2019-04-12T06:09:24.322Z,2.00
2019-04-12T06:11:54.255Z,2.00
2019-04-12T06:14:23.849Z,1.90
2019-04-12T06:17:03.176Z,1.80
2019-04-12T06:19:34.242Z,1.80
2019-04-12T06:22:10.897Z,1.90
2019-04-12T06:24:41.202Z,1.90
2019-04-12T06:27:37.843Z,1.90
2019-04-12T06:30:08.259Z,1.70
2019-04-12T06:32:37.693Z,1.70
2019-04-12T06:35:07.113Z,1.70
2019-04-12T06:37:55.586Z,1.60
2019-04-12T06:40:24.976Z,1.70
2019-04-12T06:42:54.393Z,1.70
2019-04-12T06:45:23.902Z,1.60
2019-04-12T06:47:53.324Z,1.60
2019-04-12T06:50:30.648Z,1.50
2019-04-12T06:53:00.077Z,1.60
2019-04-12T06:55:31.469Z,1.60
2019-04-12T06:58:00.977Z,1.60
2019-04-12T07:00:49.653Z,1.60
2019-04-12T07:03:30.150Z,1.70
2019-04-12T07:05:59.912Z,1.70
2019-04-12T07:08:29.337Z,1.60
2019-04-12T07:10:58.735Z,1.50
2019-04-12T07:13:28.497Z,1.50
2019-04-12T07:15:57.977Z,1.50
2019-04-12T07:18:27.405Z,1.50
2019-04-12T07:20:56.820Z,1.50
2019-04-12T07:23:26.228Z,1.50
2019-04-12T07:25:55.701Z,1.50
2019-04-12T07:28:25.114Z,1.50
2019-04-12T07:30:57.064Z,1.60
2019-04-12T07:33:25.613Z,1.80
2019-04-12T07:35:55.057Z,1.70
2019-04-12T07:38:24.459Z,1.80
2019-04-12T07:40:53.899Z,1.90
2019-04-12T07:43:23.329Z,1.90
2019-04-12T07:45:52.737Z,1.90
2019-04-12T07:48:22.553Z,1.90
2019-04-12T07:51:03.307Z,2.10
2019-04-12T07:53:54.469Z,2.10
2019-04-12T07:56:24.050Z,2.20
2019-04-12T07:59:16.527Z,2.20
2019-04-12T08:01:52.877Z,2.30
2019-04-12T08:04:37.717Z,2.40
2019-04-12T08:07:22.415Z,2.30
2019-04-12T08:09:51.837Z,2.20
2019-04-12T08:12:21.574Z,2.20
2019-04-12T08:14:51.048Z,2.20
2019-04-12T08:17:20.478Z,2.20
2019-04-12T08:19:49.937Z,2.30
2019-04-12T08:22:19.337Z,2.40
2019-04-12T08:24:48.799Z,2.50
2019-04-12T08:27:18.222Z,2.60
2019-04-12T08:29:47.681Z,2.60
2019-04-12T08:32:17.150Z,2.50
2019-04-12T08:34:46.611Z,2.40
2019-04-12T08:37:16.049Z,2.50
2019-04-12T08:39:45.453Z,2.60
2019-04-12T08:42:14.863Z,2.70
2019-04-12T08:44:44.292Z,2.60
2019-04-12T08:47:14.052Z,2.70
2019-04-12T08:49:43.601Z,2.80
2019-04-12T08:52:13.069Z,2.80
2019-04-12T08:54:42.481Z,2.80
2019-04-12T08:57:11.897Z,2.90
2019-04-12T08:59:41.420Z,3.00
2019-04-12T09:02:10.885Z,3.10
2019-04-12T09:04:40.303Z,3.10
2019-04-12T09:07:09.754Z,3.00
2019-04-12T09:09:39.709Z,3.00
2019-04-12T09:12:09.218Z,3.00
2019-04-12T09:14:39.206Z,3.10
2019-04-12T09:17:08.832Z,3.10
2019-04-12T09:19:43.066Z,3.10
2019-04-12T09:22:40.744Z,3.20
2019-04-12T09:25:32.587Z,3.20
2019-04-12T09:28:05.655Z,3.10
2019-04-12T09:30:35.517Z,3.00
2019-04-12T09:33:05.041Z,2.90
2019-04-12T09:35:34.475Z,2.90
2019-04-12T09:38:03.917Z,3.00
2019-04-12T09:40:33.897Z,3.20
2019-04-12T09:43:03.361Z,3.30
2019-04-12T09:45:33.299Z,3.30
2019-04-12T09:48:02.713Z,3.40
2019-04-12T09:50:32.147Z,3.60
2019-04-12T09:53:01.603Z,3.60
2019-04-12T09:55:30.976Z,3.60
2019-04-12T09:58:00.413Z,3.50
2019-04-12T10:00:29.944Z,3.50
2019-04-12T10:02:59.401Z,3.50
2019-04-12T10:05:28.831Z,3.20
2019-04-12T10:07:58.219Z,3.20
2019-04-12T10:10:27.643Z,3.20
2019-04-12T10:12:57.112Z,3.20
2019-04-12T10:15:26.515Z,3.20
2019-04-12T10:17:55.952Z,3.40
2019-04-12T10:20:25.363Z,3.50
2019-04-12T10:22:54.769Z,3.60
2019-04-12T10:25:24.194Z,3.60
2019-04-12T10:27:54.445Z,3.70
2019-04-12T10:30:24.450Z,3.80
2019-04-12T10:32:54.023Z,4.00
2019-04-12T10:35:24.150Z,3.90
2019-04-12T10:37:56.169Z,3.80
2019-04-12T10:40:24.620Z,3.80
2019-04-12T10:42:54.101Z,3.90
2019-04-12T10:45:34.565Z,4.00
2019-04-12T10:48:21.375Z,3.90
2019-04-12T10:51:08.514Z,4.00
2019-04-12T10:53:59.637Z,4.00
2019-04-12T10:56:29.205Z,4.00
2019-04-12T10:59:03.132Z,4.00
2019-04-12T11:01:29.686Z,4.20
2019-04-12T11:03:59.107Z,4.30
2019-04-12T11:06:30.459Z,4.00
2019-04-12T11:08:59.607Z,4.10
2019-04-12T11:11:29.049Z,4.30
2019-04-12T11:13:58.446Z,4.30
2019-04-12T11:16:27.918Z,4.50
2019-04-12T11:18:57.316Z,4.40
2019-04-12T11:21:26.734Z,4.30
2019-04-12T11:23:56.477Z,4.20
2019-04-12T11:26:26.595Z,4.30
2019-04-12T11:28:56.076Z,4.40
2019-04-12T11:31:44.646Z,4.40
2019-04-12T11:34:14.078Z,4.40
2019-04-12T11:36:43.582Z,4.10
2019-04-12T11:39:13.157Z,4.30
2019-04-12T11:41:42.594Z,4.50
2019-04-12T11:44:12.073Z,4.70
2019-04-12T11:46:41.594Z,5.00
2019-04-12T11:49:11.060Z,4.90
2019-04-12T11:51:40.473Z,4.80
2019-04-12T11:54:09.881Z,4.70
2019-04-12T11:56:39.302Z,4.50
2019-04-12T11:59:08.821Z,4.50
2019-04-12T12:02:03.578Z,4.50
2019-04-12T12:04:50.709Z,4.50
2019-04-12T12:07:49.889Z,4.40
2019-04-12T12:10:30.728Z,4.50
2019-04-12T12:13:09.097Z,4.40
2019-04-12T12:16:03.602Z,4.30
2019-04-12T12:18:37.139Z,4.30
2019-04-12T12:21:06.617Z,4.30
2019-04-12T12:23:36.017Z,4.30
2019-04-12T12:26:05.551Z,4.30
2019-04-12T12:28:34.995Z,4.30
2019-04-12T12:31:04.449Z,4.10
2019-04-12T12:33:33.905Z,4.10
2019-04-12T12:36:03.465Z,4.20
2019-04-12T12:38:32.887Z,4.30
2019-04-12T12:41:02.326Z,4.30
2019-04-12T12:43:31.916Z,4.20
2019-04-12T12:46:01.385Z,4.10
2019-04-12T12:48:30.808Z,4.20
2019-04-12T12:51:00.757Z,4.40
2019-04-12T12:53:30.272Z,4.40
2019-04-12T12:56:18.841Z,4.40
2019-04-12T12:58:48.668Z,4.30
2019-04-12T13:01:18.487Z,4.40
2019-04-12T13:03:48.018Z,4.30
2019-04-12T13:06:17.441Z,4.00
2019-04-12T13:08:47.115Z,4.00
2019-04-12T13:11:16.554Z,4.00
2019-04-12T13:13:45.977Z,4.20
2019-04-12T13:16:15.401Z,4.20
2019-04-12T13:18:45.135Z,4.20
2019-04-12T13:21:14.582Z,4.20
2019-04-12T13:23:44.029Z,4.30
2019-04-12T13:26:13.433Z,4.30
2019-04-12T13:28:43.460Z,4.30
2019-04-12T13:31:30.683Z,4.30
2019-04-12T13:34:12.813Z,4.30
2019-04-12T13:36:54.466Z,4.40
2019-04-12T13:39:45.925Z,4.50
2019-04-12T13:42:34.348Z,4.60
2019-04-12T13:45:04.114Z,4.70
2019-04-12T13:47:37.460Z,4.80
2019-04-12T13:50:08.065Z,4.90
2019-04-12T13:52:37.862Z,4.90
2019-04-12T13:55:07.560Z,4.70
2019-04-12T13:57:36.957Z,4.70
2019-04-12T14:00:18.393Z,4.60
2019-04-12T14:02:39.399Z,4.60
2019-04-12T14:05:08.961Z,4.60
2019-04-12T14:07:39.128Z,4.40
2019-04-12T14:10:09.125Z,4.40
2019-04-12T14:12:38.727Z,4.50
2019-04-12T14:15:08.954Z,4.50
2019-04-12T14:17:38.825Z,4.60
2019-04-12T14:20:08.797Z,4.60
2019-04-12T14:22:38.282Z,4.70
2019-04-12T14:25:08.221Z,4.80
2019-04-12T14:27:38.003Z,4.80
2019-04-12T14:30:10.788Z,4.90
2019-04-12T14:32:48.116Z,5.10
2019-04-12T14:35:42.791Z,5.00
2019-04-12T14:38:15.035Z,5.00
2019-04-12T14:40:44.589Z,4.90
2019-04-12T14:43:19.518Z,4.80
2019-04-12T14:46:24.529Z,4.80
2019-04-12T14:48:54.132Z,4.80
2019-04-12T14:51:23.941Z,4.80
2019-04-12T14:53:53.374Z,4.70
2019-04-12T14:56:22.965Z,4.70
2019-04-12T14:58:52.762Z,4.70
2019-04-12T15:01:22.340Z,4.50
2019-04-12T15:03:51.753Z,4.50
2019-04-12T15:06:21.187Z,4.40
2019-04-12T15:08:50.683Z,4.40
2019-04-12T15:11:20.072Z,4.40
2019-04-12T15:13:49.562Z,4.40
2019-04-12T15:16:19.013Z,4.20
2019-04-12T15:18:48.437Z,4.10
2019-04-12T15:21:17.877Z,4.10
2019-04-12T15:23:47.737Z,4.00
2019-04-12T15:26:17.202Z,4.10
2019-04-12T15:28:46.621Z,4.10
2019-04-12T15:31:16.372Z,4.20
2019-04-12T15:33:46.374Z,4.20
2019-04-12T15:36:15.815Z,4.10
2019-04-12T15:38:45.534Z,4.20
2019-04-12T15:41:14.964Z,4.20
2019-04-12T15:43:44.467Z,4.00
2019-04-12T15:46:14.106Z,3.90
2019-04-12T15:48:43.597Z,3.90
2019-04-12T15:51:13.434Z,4.00
2019-04-12T15:53:42.966Z,4.00
2019-04-12T15:56:12.837Z,4.00
2019-04-12T15:58:42.260Z,4.00
2019-04-12T16:01:21.860Z,3.90
2019-04-12T16:03:52.296Z,3.80
2019-04-12T16:06:21.777Z,3.90
2019-04-12T16:09:01.779Z,3.80
2019-04-12T16:11:38.886Z,3.90
2019-04-12T16:14:19.936Z,4.00
2019-04-12T16:17:26.549Z,4.00
2019-04-12T16:19:55.940Z,4.00
2019-04-12T16:22:25.712Z,4.00
2019-04-12T16:24:55.513Z,4.00
2019-04-12T16:27:24.925Z,4.00
2019-04-12T16:30:06.178Z,3.90
2019-04-12T16:32:44.506Z,3.80
2019-04-12T16:35:32.916Z,3.80
2019-04-12T16:38:14.569Z,3.80
2019-04-12T16:40:43.958Z,3.80
2019-04-12T16:43:13.410Z,3.80
2019-04-12T16:45:43.192Z,3.80
2019-04-12T16:48:12.682Z,3.70
2019-04-12T16:50:42.069Z,3.80
2019-04-12T16:53:11.517Z,3.80
2019-04-12T16:55:40.959Z,3.80
2019-04-12T16:58:10.474Z,3.80
2019-04-12T17:00:40.710Z,3.80
2019-04-12T17:03:10.651Z,3.80
2019-04-12T17:05:40.083Z,3.80
2019-04-12T17:08:09.519Z,3.80
2019-04-12T17:10:39.224Z,3.70
2019-04-12T17:13:11.574Z,3.60
2019-04-12T17:15:39.740Z,3.60
2019-04-12T17:18:09.178Z,3.60
2019-04-12T17:20:38.607Z,3.60
2019-04-12T17:23:08.417Z,3.50
2019-04-12T17:25:37.882Z,3.50
2019-04-12T17:28:07.670Z,3.50
2019-04-12T17:30:37.139Z,3.50
2019-04-12T17:33:06.675Z,3.50
2019-04-12T17:35:36.129Z,3.50
2019-04-12T17:38:05.810Z,3.50
2019-04-12T17:40:35.677Z,3.50
2019-04-12T17:43:07.580Z,3.50
2019-04-12T17:45:37.178Z,3.50
2019-04-12T17:48:08.442Z,3.50
2019-04-12T17:50:52.065Z,3.50
2019-04-12T17:53:50.254Z,3.50
2019-04-12T17:56:27.039Z,3.60
2019-04-12T17:58:51.966Z,3.60
2019-04-12T18:01:31.577Z,3.60
2019-04-12T18:04:05.841Z,3.60
2019-04-12T18:06:36.239Z,3.60
2019-04-12T18:09:07.305Z,3.70
2019-04-12T18:11:46.120Z,3.70
2019-04-12T18:14:35.024Z,3.70
2019-04-12T18:17:04.557Z,3.70
2019-04-12T18:19:34.888Z,3.70
2019-04-12T18:22:04.645Z,3.70
2019-04-12T18:24:35.682Z,3.70
2019-04-12T18:27:06.105Z,3.70
2019-04-12T18:29:35.609Z,3.70
2019-04-12T18:32:14.360Z,3.70
2019-04-12T18:34:38.719Z,3.70
2019-04-12T18:37:08.342Z,3.70
2019-04-12T18:39:37.868Z,3.70
2019-04-12T18:42:07.482Z,3.70
2019-04-12T18:44:37.099Z,3.70
2019-04-12T18:47:09.929Z,3.70
2019-04-12T18:49:41.905Z,3.70
2019-04-12T18:52:11.415Z,3.70
2019-04-12T18:54:41.276Z,3.70
2019-04-12T18:57:11.138Z,3.70
2019-04-12T18:59:40.749Z,3.70
2019-04-12T19:02:12.399Z,3.70
2019-04-12T19:04:47.426Z,3.70
2019-04-12T19:07:17.392Z,3.70
2019-04-12T19:09:47.081Z,3.70
2019-04-12T19:12:16.668Z,3.70
2019-04-12T19:14:49.840Z,3.70
2019-04-12T19:17:36.157Z,3.70
2019-04-12T19:20:06.786Z,3.70
2019-04-12T19:22:36.340Z,3.70
2019-04-12T19:25:08.487Z,3.70
2019-04-12T19:27:43.043Z,3.70
2019-04-12T19:30:17.710Z,3.70
2019-04-12T19:33:06.476Z,3.70
2019-04-12T19:35:45.586Z,3.70
2019-04-12T19:38:48.898Z,3.70
2019-04-12T19:41:21.843Z,3.70
2019-04-12T19:43:53.032Z,3.70
2019-04-12T19:46:22.977Z,3.70
2019-04-12T19:48:52.585Z,3.70
2019-04-12T19:51:23.603Z,3.60
2019-04-12T19:53:53.179Z,3.60
2019-04-12T19:56:22.687Z,3.50
2019-04-12T19:58:52.666Z,3.50
2019-04-12T20:01:22.279Z,3.50
2019-04-12T20:03:52.348Z,3.50
2019-04-12T20:06:21.897Z,3.50
2019-04-12T20:08:51.733Z,3.50
2019-04-12T20:11:21.971Z,3.50
2019-04-12T20:13:54.779Z,3.50
2019-04-12T20:16:24.274Z,3.50
2019-04-12T20:18:54.408Z,3.50
2019-04-12T20:21:24.258Z,3.50
2019-04-12T20:23:54.053Z,3.40
2019-04-12T20:26:23.762Z,3.40
2019-04-12T20:28:53.165Z,3.30
2019-04-12T20:31:22.864Z,3.40
2019-04-12T20:33:52.613Z,3.30
2019-04-12T20:36:22.086Z,3.30
2019-04-12T20:38:51.509Z,3.30
2019-04-12T20:41:20.930Z,3.20
2019-04-12T20:43:50.681Z,3.20
2019-04-12T20:46:20.197Z,3.20
2019-04-12T20:48:49.622Z,3.10
2019-04-12T20:51:19.484Z,3.10
2019-04-12T20:53:48.921Z,3.10
2019-04-12T20:56:18.357Z,3.00
2019-04-12T20:58:47.772Z,3.00
2019-04-12T21:01:17.235Z,3.00
2019-04-12T21:03:48.215Z,3.00
2019-04-12T21:06:17.658Z,3.00
2019-04-12T21:08:47.057Z,3.00
2019-04-12T21:11:16.468Z,3.00
2019-04-12T21:13:46.214Z,3.00
2019-04-12T21:16:15.648Z,3.00
2019-04-12T21:18:45.221Z,2.90
2019-04-12T21:21:15.016Z,2.90
2019-04-12T21:23:44.744Z,2.90
2019-04-12T21:26:14.329Z,2.90
2019-04-12T21:28:43.779Z,2.90
2019-04-12T21:31:13.237Z,2.80
2019-04-12T21:33:42.793Z,2.70
2019-04-12T21:36:12.299Z,2.70
2019-04-12T21:38:42.041Z,2.60
2019-04-12T21:41:11.452Z,2.70
2019-04-12T21:43:40.879Z,2.60
2019-04-12T21:46:19.236Z,2.60
2019-04-12T21:48:41.385Z,2.60
2019-04-12T21:51:10.889Z,2.60
2019-04-12T21:53:40.344Z,2.60
2019-04-12T21:56:09.749Z,2.60
2019-04-12T21:58:39.146Z,2.60
2019-04-12T22:01:11.833Z,2.60
2019-04-12T22:03:41.700Z,2.60
2019-04-12T22:06:11.150Z,2.60
2019-04-12T22:08:40.581Z,2.70
2019-04-12T22:11:10.015Z,2.70
2019-04-12T22:13:39.776Z,2.70
2019-04-12T22:16:09.660Z,2.70
2019-04-12T22:18:39.053Z,2.70
2019-04-12T22:21:08.515Z,2.70
2019-04-12T22:23:37.919Z,2.70
2019-04-12T22:26:07.358Z,2.70
2019-04-12T22:28:36.760Z,2.80
2019-04-12T22:31:26.421Z,2.80
2019-04-12T22:33:55.842Z,2.80
2019-04-12T22:36:25.329Z,2.80
2019-04-12T22:38:54.718Z,2.80
2019-04-12T22:41:24.485Z,2.80
2019-04-12T22:43:53.907Z,2.80
2019-04-12T22:46:23.341Z,2.80
2019-04-12T22:48:53.136Z,2.80
2019-04-12T22:51:22.523Z,2.80
2019-04-12T22:53:52.432Z,2.80
2019-04-12T22:56:22.222Z,2.70
2019-04-12T22:58:51.644Z,2.80
2019-04-12T23:01:21.417Z,2.80
2019-04-12T23:03:50.854Z,2.80
2019-04-12T23:06:20.310Z,2.80
2019-04-12T23:08:49.712Z,2.80
2019-04-12T23:11:19.124Z,2.80
2019-04-12T23:13:48.574Z,2.80
2019-04-12T23:16:17.998Z,2.80
2019-04-12T23:18:47.789Z,2.80
2019-04-12T23:21:17.191Z,2.80
2019-04-12T23:23:46.636Z,2.90
2019-04-12T23:26:16.086Z,2.90
2019-04-12T23:28:45.494Z,2.90
2019-04-12T23:31:30.314Z,2.90
2019-04-12T23:34:18.668Z,2.80
2019-04-12T23:36:48.177Z,2.90
2019-04-12T23:39:17.623Z,2.90
2019-04-12T23:41:47.046Z,2.90
2019-04-12T23:44:16.825Z,2.90
2019-04-12T23:46:46.265Z,2.80
2019-04-12T23:49:15.694Z,2.80
2019-04-12T23:51:45.099Z,2.90
2019-04-12T23:54:14.601Z,2.90
2019-04-12T23:56:44.222Z,2.90
2019-04-12T23:59:13.945Z,2.90
